Time;durP1;ratioP1;P1;durP2;ratioP2;P2;SDS_P1;SDS_P2;PMS_P1;PMS_P2;Temp;Humidity;BMP_temperature;BMP_pressure;BME280_temperature;BME280_humidity;BME280_pressure;Samples;Min_cycle;Max_cycle;Signal;HPM_P1;HPM_P2
2022/01/03 00:01:44;;;;;;;4.47;1.13;;;;;;;;;;4934094;29;20052;-66
2022/01/03 00:04:12;;;;;;;3.58;0.90;;;;;;;;;;4935096;29;20056;-66
2022/01/03 00:06:39;;;;;;;4.40;1.15;;;;;;;;;;4935158;29;20051;-66
2022/01/03 00:09:07;;;;;;;8.23;1.13;;;;;;;;;;4918013;29;20102;-65
2022/01/03 00:11:35;;;;;;;3.90;1.08;;;;;;;;;;4949461;28;20051;-65
2022/01/03 00:14:02;;;;;;;4.00;0.90;;;;;;;;;;4949714;29;20115;-67
2022/01/03 00:16:31;;;;;;;3.67;0.93;;;;;;;;;;4949998;28;20098;-66
2022/01/03 00:18:58;;;;;;;1.85;0.95;;;;;;;;;;4950048;29;20052;-66
2022/01/03 00:21:29;;;;;;;5.20;1.08;;;;;;;;;;4934115;28;20052;-65
2022/01/03 00:24:07;;;;;;;5.18;1.45;;;;;;;;;;4929919;29;20063;-67
2022/01/03 00:26:35;;;;;;;4.43;1.00;;;;;;;;;;4916872;29;20052;-66
2022/01/03 00:29:29;;;;;;;4.50;0.85;;;;;;;;;;4930383;29;20060;-67
2022/01/03 00:31:57;;;;;;;4.57;0.93;;;;;;;;;;4917047;29;20059;-66
2022/01/03 00:34:28;;;;;;;1.42;0.55;;;;;;;;;;4964971;28;20474;-67
2022/01/03 00:36:55;;;;;;;3.55;0.95;;;;;;;;;;4934679;29;20051;-66
2022/01/03 00:39:22;;;;;;;3.13;1.00;;;;;;;;;;4965682;28;20469;-67
2022/01/03 00:41:49;;;;;;;3.80;0.90;;;;;;;;;;4934423;29;20052;-66
2022/01/03 00:44:16;;;;;;;4.95;1.42;;;;;;;;;;4944372;29;20107;-65
2022/01/03 00:46:43;;;;;;;2.90;0.80;;;;;;;;;;4930072;29;20104;-66
2022/01/03 00:49:10;;;;;;;3.53;0.80;;;;;;;;;;4930142;29;20052;-65
2022/01/03 00:51:36;;;;;;;2.72;0.88;;;;;;;;;;4915481;29;20051;-67
2022/01/03 00:54:03;;;;;;;5.18;1.92;;;;;;;;;;4926417;29;20569;-65
2022/01/03 00:56:35;;;;;;;3.05;1.08;;;;;;;;;;4949261;28;20126;-65
2022/01/03 00:59:09;;;;;;;4.18;1.50;;;;;;;;;;4933510;29;20111;-65
2022/01/03 01:01:45;;;;;;;4.80;1.67;;;;;;;;;;4964785;28;20569;-65
2022/01/03 01:04:12;;;;;;;3.50;1.05;;;;;;;;;;4964664;28;20058;-65
2022/01/03 01:06:39;;;;;;;2.10;0.90;;;;;;;;;;4949121;28;20055;-67
2022/01/03 01:09:08;;;;;;;3.83;1.10;;;;;;;;;;4949110;28;20396;-66
2022/01/03 01:11:35;;;;;;;2.38;0.88;;;;;;;;;;4933234;29;20047;-67
2022/01/03 01:14:02;;;;;;;5.38;1.55;;;;;;;;;;4932992;29;20059;-66
2022/01/03 01:16:29;;;;;;;2.63;0.98;;;;;;;;;;4947935;28;20051;-66
2022/01/03 01:18:56;;;;;;;6.43;0.80;;;;;;;;;;4964713;28;20048;-66
2022/01/03 01:21:25;;;;;;;4.30;0.82;;;;;;;;;;4966045;28;20055;-65
2022/01/03 01:23:52;;;;;;;3.85;1.10;;;;;;;;;;4937850;29;20055;-65
2022/01/03 01:29:08;;;;;;;4.85;1.33;;;;;;;;;;4963786;28;20499;-65
2022/01/03 01:31:37;;;;;;;2.78;1.35;;;;;;;;;;4936892;29;20099;-65
2022/01/03 01:34:05;;;;;;;4.60;0.85;;;;;;;;;;4937680;29;20051;-66
2022/01/03 01:36:32;;;;;;;4.15;0.90;;;;;;;;;;4968533;28;20106;-66
2022/01/03 01:39:04;;;;;;;6.35;1.00;;;;;;;;;;4952346;28;20073;-65
2022/01/03 01:41:31;;;;;;;3.58;0.77;;;;;;;;;;4968020;28;20059;-65
2022/01/03 01:43:59;;;;;;;2.75;0.90;;;;;;;;;;4952244;28;20052;-65
2022/01/03 01:46:26;;;;;;;2.00;0.70;;;;;;;;;;4952232;29;20051;-65
2022/01/03 01:48:53;;;;;;;3.35;1.05;;;;;;;;;;4937504;29;20511;-65
2022/01/03 01:51:23;;;;;;;5.03;1.10;;;;;;;;;;4945662;29;20444;-66
2022/01/03 01:53:52;;;;;;;1.77;0.85;;;;;;;;;;4917047;29;20051;-65
2022/01/03 01:56:25;;;;;;;1.85;0.80;;;;;;;;;;4932831;29;20431;-65
2022/01/03 01:59:00;;;;;;;6.85;1.48;;;;;;;;;;4918242;29;20055;-65
2022/01/03 02:01:50;;;;;;;5.22;1.00;;;;;;;;;;4918662;29;20092;-65
2022/01/03 02:04:47;;;;;;;2.88;1.10;;;;;;;;;;4930690;29;20052;-65
2022/01/03 02:07:34;;;;;;;3.53;0.95;;;;;;;;;;4963955;28;20561;-67
2022/01/03 02:10:15;;;;;;;2.25;0.80;;;;;;;;;;4937143;29;20090;-66
2022/01/03 02:12:45;;;;;;;2.47;1.00;;;;;;;;;;4967341;28;20056;-65
2022/01/03 02:15:15;;;;;;;2.42;0.90;;;;;;;;;;4961836;28;20116;-65
2022/01/03 02:17:44;;;;;;;3.70;1.02;;;;;;;;;;4916715;29;20052;-65
2022/01/03 02:20:16;;;;;;;5.25;1.35;;;;;;;;;;4948210;28;20081;-65
2022/01/03 02:22:44;;;;;;;6.80;1.38;;;;;;;;;;4917791;29;20074;-66
2022/01/03 02:25:12;;;;;;;5.07;1.48;;;;;;;;;;4916833;29;20048;-66
2022/01/03 02:27:39;;;;;;;4.88;0.95;;;;;;;;;;4932362;29;20052;-66
2022/01/03 02:33:53;;;;;;;5.53;0.70;;;;;;;;;;4916784;29;20087;-65
2022/01/03 02:36:20;;;;;;;3.55;0.93;;;;;;;;;;4932369;29;20107;-65
2022/01/03 02:38:47;;;;;;;6.05;0.90;;;;;;;;;;4960225;28;20103;-67
2022/01/03 02:41:14;;;;;;;4.47;0.93;;;;;;;;;;4951511;28;20126;-65
2022/01/03 02:43:40;;;;;;;6.40;1.10;;;;;;;;;;4936481;29;20189;-65
2022/01/03 02:46:08;;;;;;;4.35;1.60;;;;;;;;;;4951391;29;20060;-65
2022/01/03 02:48:35;;;;;;;3.92;1.08;;;;;;;;;;4936324;29;20056;-65
2022/01/03 02:51:01;;;;;;;3.63;1.00;;;;;;;;;;4951057;29;20478;-66
2022/01/03 02:53:28;;;;;;;6.88;1.20;;;;;;;;;;4936290;29;20496;-65
2022/01/03 02:55:55;;;;;;;5.90;2.05;;;;;;;;;;4967045;28;20499;-65
2022/01/03 02:58:21;;;;;;;3.25;1.13;;;;;;;;;;4950784;28;20464;-65
2022/01/03 03:00:49;;;;;;;4.38;1.02;;;;;;;;;;4932263;29;20040;-66
2022/01/03 03:03:18;;;;;;;4.15;0.90;;;;;;;;;;4931623;29;20111;-65
2022/01/03 03:05:45;;;;;;;3.63;1.02;;;;;;;;;;4931675;29;20107;-65
2022/01/03 03:08:12;;;;;;;3.25;1.65;;;;;;;;;;4915894;29;20048;-66
2022/01/03 03:10:40;;;;;;;2.70;0.77;;;;;;;;;;4947438;28;20099;-65
2022/01/03 03:13:07;;;;;;;3.78;1.02;;;;;;;;;;4931353;29;20107;-64
2022/01/03 03:15:34;;;;;;;2.17;0.90;;;;;;;;;;4931669;29;20199;-65
2022/01/03 03:18:02;;;;;;;7.70;1.23;;;;;;;;;;4958487;23;20094;-70
2022/01/03 03:20:30;;;;;;;3.95;0.88;;;;;;;;;;4955168;28;20047;-70
2022/01/03 03:22:58;;;;;;;4.80;0.90;;;;;;;;;;4954874;29;20462;-70
2022/01/03 03:25:27;;;;;;;3.38;0.88;;;;;;;;;;4955241;28;20051;-70
2022/01/03 03:27:56;;;;;;;7.32;1.23;;;;;;;;;;4954810;28;20137;-70
2022/01/03 03:30:25;;;;;;;3.45;1.35;;;;;;;;;;4954983;28;20482;-70
2022/01/03 03:32:55;;;;;;;6.10;1.35;;;;;;;;;;4954679;28;20051;-70
2022/01/03 03:35:22;;;;;;;4.55;0.90;;;;;;;;;;4954795;28;20055;-70
2022/01/03 03:37:48;;;;;;;4.97;0.80;;;;;;;;;;4954633;28;20378;-70
2022/01/03 03:40:15;;;;;;;2.05;0.70;;;;;;;;;;4954847;29;20102;-70
2022/01/03 03:42:42;;;;;;;4.65;0.90;;;;;;;;;;4953395;29;20106;-70
2022/01/03 03:45:10;;;;;;;6.13;1.55;;;;;;;;;;4953847;28;20399;-69
2022/01/03 03:47:36;;;;;;;4.57;1.00;;;;;;;;;;4954762;28;20055;-70
2022/01/03 03:50:04;;;;;;;3.83;1.13;;;;;;;;;;4954541;28;20062;-69
2022/01/03 03:52:31;;;;;;;4.82;1.30;;;;;;;;;;4945602;28;20051;-69
2022/01/03 03:54:58;;;;;;;3.03;0.90;;;;;;;;;;4935296;29;20098;-70
2022/01/03 03:57:25;;;;;;;4.88;1.27;;;;;;;;;;4935350;29;20084;-70
2022/01/03 03:59:52;;;;;;;6.78;1.90;;;;;;;;;;4935165;29;20495;-69
2022/01/03 04:02:19;;;;;;;5.10;1.13;;;;;;;;;;4934265;29;20130;-70
2022/01/03 04:04:46;;;;;;;5.82;0.80;;;;;;;;;;4935072;29;20550;-69
2022/01/03 04:07:12;;;;;;;4.57;1.23;;;;;;;;;;4935282;29;20171;-71
2022/01/03 04:09:39;;;;;;;3.88;1.05;;;;;;;;;;4935081;29;20051;-71
2022/01/03 04:12:06;;;;;;;4.10;1.10;;;;;;;;;;4939643;28;20110;-70
2022/01/03 04:14:33;;;;;;;5.28;1.10;;;;;;;;;;4954148;28;20047;-70
2022/01/03 04:17:00;;;;;;;6.22;1.67;;;;;;;;;;4954350;28;20502;-69
2022/01/03 04:19:26;;;;;;;7.47;1.40;;;;;;;;;;4954181;28;20574;-70
2022/01/03 04:21:53;;;;;;;6.55;1.15;;;;;;;;;;4953770;28;20051;-70
2022/01/03 04:24:20;;;;;;;6.65;1.42;;;;;;;;;;4954111;28;20101;-70
2022/01/03 04:26:49;;;;;;;4.00;0.90;;;;;;;;;;4954072;28;20047;-71
2022/01/03 04:29:16;;;;;;;7.70;0.90;;;;;;;;;;4954078;28;20518;-71
2022/01/03 04:31:43;;;;;;;6.40;1.38;;;;;;;;;;4938888;28;20055;-69
2022/01/03 04:34:10;;;;;;;7.25;1.77;;;;;;;;;;4934698;29;20051;-70
2022/01/03 04:36:36;;;;;;;8.40;1.58;;;;;;;;;;4934814;29;20063;-70
2022/01/03 04:39:04;;;;;;;3.67;0.90;;;;;;;;;;4934713;29;20051;-70
2022/01/03 04:41:31;;;;;;;3.65;1.23;;;;;;;;;;4947638;29;20466;-70
2022/01/03 04:43:57;;;;;;;6.32;1.17;;;;;;;;;;4953665;28;20577;-70
2022/01/03 04:46:24;;;;;;;6.47;1.00;;;;;;;;;;4953870;28;20422;-70
2022/01/03 04:48:51;;;;;;;6.45;1.20;;;;;;;;;;4952450;29;20133;-70
2022/01/03 04:51:17;;;;;;;8.90;1.40;;;;;;;;;;4942606;28;20044;-70
2022/01/03 04:53:44;;;;;;;4.00;0.82;;;;;;;;;;4934379;29;20122;-70
2022/01/03 04:56:12;;;;;;;6.03;1.10;;;;;;;;;;4935740;29;20056;-69
2022/01/03 04:58:40;;;;;;;4.72;0.93;;;;;;;;;;4940773;29;20052;-69
2022/01/03 05:01:06;;;;;;;6.25;1.00;;;;;;;;;;4940908;29;20055;-69
2022/01/03 05:03:34;;;;;;;3.85;1.13;;;;;;;;;;4940709;29;20541;-69
2022/01/03 05:06:01;;;;;;;4.45;0.88;;;;;;;;;;4940875;29;20048;-69
2022/01/03 05:08:29;;;;;;;3.25;0.90;;;;;;;;;;4939553;29;20130;-70
2022/01/03 05:11:00;;;;;;;6.90;0.90;;;;;;;;;;4940299;29;20051;-69
2022/01/03 05:13:28;;;;;;;3.05;1.00;;;;;;;;;;4940769;29;20051;-70
2022/01/03 05:15:56;;;;;;;6.05;1.08;;;;;;;;;;4940792;29;20309;-69
2022/01/03 05:18:22;;;;;;;4.40;0.63;;;;;;;;;;4940567;29;20052;-69
2022/01/03 05:20:49;;;;;;;3.40;0.80;;;;;;;;;;4940605;29;20052;-69
2022/01/03 05:23:16;;;;;;;2.28;0.98;;;;;;;;;;4940634;29;20423;-69
2022/01/03 05:25:43;;;;;;;4.22;1.17;;;;;;;;;;4940661;29;20103;-70
2022/01/03 05:28:10;;;;;;;8.40;0.90;;;;;;;;;;4940577;29;20055;-70
2022/01/03 05:30:36;;;;;;;6.35;1.23;;;;;;;;;;4945331;29;20490;-70
2022/01/03 05:33:03;;;;;;;7.97;1.00;;;;;;;;;;4959461;28;20131;-70
2022/01/03 05:35:30;;;;;;;5.07;1.05;;;;;;;;;;4959868;28;20106;-70
2022/01/03 05:37:57;;;;;;;4.18;1.20;;;;;;;;;;4958370;29;20077;-71
2022/01/03 05:40:24;;;;;;;6.30;1.23;;;;;;;;;;4959499;28;20055;-70
2022/01/03 05:42:51;;;;;;;6.32;1.10;;;;;;;;;;4959404;28;20055;-70
2022/01/03 05:45:18;;;;;;;8.52;1.10;;;;;;;;;;4959758;28;20051;-70
2022/01/03 05:47:46;;;;;;;6.05;1.00;;;;;;;;;;4959474;28;20110;-70
2022/01/03 05:50:15;;;;;;;3.55;1.00;;;;;;;;;;4959707;29;20462;-70
2022/01/03 05:52:41;;;;;;;8.38;2.25;;;;;;;;;;4959326;28;20067;-71
2022/01/03 05:55:08;;;;;;;6.30;1.70;;;;;;;;;;4943634;28;20106;-71
2022/01/03 05:57:35;;;;;;;7.65;1.65;;;;;;;;;;4940389;29;20056;-70
2022/01/03 06:00:04;;;;;;;10.50;1.48;;;;;;;;;;4948520;29;20051;-70
2022/01/03 06:02:36;;;;;;;5.75;1.23;;;;;;;;;;4959277;28;20105;-70
2022/01/03 06:05:05;;;;;;;5.90;1.10;;;;;;;;;;4959584;28;20062;-69
2022/01/03 06:07:32;;;;;;;7.65;1.00;;;;;;;;;;4958274;28;20133;-69
2022/01/03 06:09:58;;;;;;;8.15;0.98;;;;;;;;;;4956134;28;20558;-70
2022/01/03 06:12:25;;;;;;;8.63;1.42;;;;;;;;;;4956644;28;20114;-69
2022/01/03 06:14:51;;;;;;;6.78;1.30;;;;;;;;;;4956133;28;20517;-69
2022/01/03 06:17:18;;;;;;;7.40;1.30;;;;;;;;;;4955089;28;20055;-70
2022/01/03 06:19:45;;;;;;;5.68;1.50;;;;;;;;;;4956258;28;20055;-70
2022/01/03 06:22:12;;;;;;;6.78;1.98;;;;;;;;;;4956092;28;20051;-70
2022/01/03 06:24:40;;;;;;;6.30;0.93;;;;;;;;;;4956051;28;20051;-70
2022/01/03 06:27:07;;;;;;;11.60;2.42;;;;;;;;;;4956167;28;20066;-69
2022/01/03 06:29:33;;;;;;;6.90;1.67;;;;;;;;;;4954036;28;20055;-69
2022/01/03 06:32:00;;;;;;;5.30;1.15;;;;;;;;;;4954059;28;20055;-69
2022/01/03 06:34:27;;;;;;;8.15;1.30;;;;;;;;;;4954021;28;20054;-70
2022/01/03 06:36:54;;;;;;;11.95;1.33;;;;;;;;;;4954192;28;20051;-69
2022/01/03 06:39:21;;;;;;;4.35;1.13;;;;;;;;;;4954256;28;20122;-69
2022/01/03 06:41:47;;;;;;;8.77;1.48;;;;;;;;;;4953807;28;20043;-70
2022/01/03 06:44:14;;;;;;;12.93;2.90;;;;;;;;;;4953947;28;20118;-68
2022/01/03 06:46:40;;;;;;;8.25;1.90;;;;;;;;;;4954149;28;20415;-68
2022/01/03 06:49:07;;;;;;;9.45;2.30;;;;;;;;;;4953893;28;20059;-69
2022/01/03 06:51:34;;;;;;;11.13;1.85;;;;;;;;;;4953732;28;20052;-69
2022/01/03 06:54:04;;;;;;;13.02;2.60;;;;;;;;;;4953383;28;20094;-69
2022/01/03 06:56:30;;;;;;;8.88;1.38;;;;;;;;;;4953322;28;20051;-69
2022/01/03 06:58:57;;;;;;;7.00;1.63;;;;;;;;;;4953415;28;20051;-68
2022/01/03 07:01:23;;;;;;;6.47;1.85;;;;;;;;;;4953390;28;20490;-69
2022/01/03 07:03:50;;;;;;;7.18;1.50;;;;;;;;;;4946029;28;20524;-69
2022/01/03 07:06:17;;;;;;;6.07;1.42;;;;;;;;;;4942191;28;20569;-69
2022/01/03 07:08:44;;;;;;;7.85;1.92;;;;;;;;;;4952811;28;20059;-69
2022/01/03 07:11:10;;;;;;;13.43;2.38;;;;;;;;;;4953447;28;20047;-68
2022/01/03 07:13:47;;;;;;;6.47;1.20;;;;;;;;;;4953110;28;20059;-69
2022/01/03 07:19:00;;;;;;;10.10;2.05;;;;;;;;;;4933726;29;20693;-68
2022/01/03 07:21:28;;;;;;;6.25;1.30;;;;;;;;;;4933461;29;20052;-68
2022/01/03 07:23:54;;;;;;;9.57;1.88;;;;;;;;;;4940502;29;20458;-68
2022/01/03 07:26:21;;;;;;;9.40;1.50;;;;;;;;;;4953150;28;20047;-68
2022/01/03 07:28:49;;;;;;;9.80;2.22;;;;;;;;;;4952753;28;20051;-68
2022/01/03 07:31:16;;;;;;;10.85;2.58;;;;;;;;;;4953209;28;20051;-69
2022/01/03 07:33:43;;;;;;;17.73;4.13;;;;;;;;;;4945571;29;20055;-68
2022/01/03 07:36:11;;;;;;;11.23;3.30;;;;;;;;;;4933252;29;20110;-68
2022/01/03 07:38:38;;;;;;;9.15;2.80;;;;;;;;;;4933481;29;20059;-67
2022/01/03 07:41:05;;;;;;;14.05;2.40;;;;;;;;;;4933520;29;20466;-68
2022/01/03 07:43:32;;;;;;;8.00;2.63;;;;;;;;;;4937986;29;20569;-67
2022/01/03 07:45:58;;;;;;;9.43;2.47;;;;;;;;;;4952721;28;20055;-68
2022/01/03 07:48:25;;;;;;;7.82;2.53;;;;;;;;;;4951042;29;20055;-69
2022/01/03 07:50:52;;;;;;;12.98;2.30;;;;;;;;;;4952610;28;20058;-69
2022/01/03 07:53:19;;;;;;;11.63;2.83;;;;;;;;;;4950248;28;20106;-68
2022/01/03 07:55:45;;;;;;;9.30;3.22;;;;;;;;;;4935410;28;20541;-68
2022/01/03 07:58:15;;;;;;;12.15;3.50;;;;;;;;;;4948232;28;20506;-70
2022/01/03 08:00:41;;;;;;;6.03;2.53;;;;;;;;;;4951153;29;20047;-67
2022/01/03 08:03:08;;;;;;;7.78;2.22;;;;;;;;;;4945712;28;20043;-67
2022/01/03 08:05:35;;;;;;;8.73;2.53;;;;;;;;;;4949315;29;20329;-67
2022/01/03 08:08:03;;;;;;;10.65;2.55;;;;;;;;;;4950129;28;20841;-67
2022/01/03 08:10:30;;;;;;;10.20;2.53;;;;;;;;;;4950790;28;20051;-67
2022/01/03 08:12:56;;;;;;;13.52;2.95;;;;;;;;;;4950301;28;20115;-68
2022/01/03 08:15:23;;;;;;;9.93;2.03;;;;;;;;;;4951052;28;20134;-66
2022/01/03 08:17:50;;;;;;;5.30;1.63;;;;;;;;;;4950296;28;20102;-68
2022/01/03 08:20:17;;;;;;;12.63;2.95;;;;;;;;;;4950582;28;20051;-68
2022/01/03 08:22:43;;;;;;;10.68;2.00;;;;;;;;;;4958000;28;20071;-68
2022/01/03 08:25:10;;;;;;;10.18;2.20;;;;;;;;;;4970381;28;20072;-68
2022/01/03 08:27:36;;;;;;;8.20;1.70;;;;;;;;;;4965433;28;20047;-67
2022/01/03 08:30:04;;;;;;;12.75;2.33;;;;;;;;;;4950725;28;20137;-69
2022/01/03 08:32:31;;;;;;;6.13;2.00;;;;;;;;;;4949564;28;20059;-70
2022/01/03 08:34:57;;;;;;;8.73;1.90;;;;;;;;;;4950390;28;20055;-69
2022/01/03 08:37:24;;;;;;;7.38;1.70;;;;;;;;;;4950358;28;20055;-68
2022/01/03 08:39:50;;;;;;;8.98;2.00;;;;;;;;;;4950481;28;20047;-68
2022/01/03 08:42:18;;;;;;;7.80;1.98;;;;;;;;;;4948171;29;20039;-66
2022/01/03 08:44:45;;;;;;;7.85;2.42;;;;;;;;;;4947055;28;20047;-67
2022/01/03 08:47:12;;;;;;;8.60;1.83;;;;;;;;;;4964646;29;20133;-67
2022/01/03 08:49:38;;;;;;;12.70;2.42;;;;;;;;;;4972634;28;20075;-67
2022/01/03 08:52:05;;;;;;;11.07;2.25;;;;;;;;;;4966837;28;20327;-67
2022/01/03 08:54:32;;;;;;;10.82;2.28;;;;;;;;;;4973061;28;20035;-67
2022/01/03 08:56:59;;;;;;;8.63;1.67;;;;;;;;;;4962095;29;20058;-66
2022/01/03 08:59:27;;;;;;;7.50;2.00;;;;;;;;;;4955471;28;20047;-70
2022/01/03 09:01:54;;;;;;;7.57;2.45;;;;;;;;;;4962571;28;20043;-70
2022/01/03 09:04:21;;;;;;;8.45;2.15;;;;;;;;;;4961593;28;20083;-68
2022/01/03 09:06:48;;;;;;;5.40;2.03;;;;;;;;;;4964143;28;20620;-66
2022/01/03 09:09:15;;;;;;;7.72;2.08;;;;;;;;;;4965206;28;20047;-72
2022/01/03 09:11:42;;;;;;;10.93;2.75;;;;;;;;;;4966955;28;20070;-70
2022/01/03 09:14:08;;;;;;;5.20;1.63;;;;;;;;;;4968493;28;20047;-71
2022/01/03 09:16:35;;;;;;;9.93;2.20;;;;;;;;;;4968223;28;20051;-72
2022/01/03 09:19:03;;;;;;;9.50;2.25;;;;;;;;;;4951946;28;20051;-72
2022/01/03 09:21:37;;;;;;;6.65;1.98;;;;;;;;;;4934556;29;20051;-71
2022/01/03 09:29:54;;;;;;;9.93;3.10;;;;;;;;;;4933713;28;20059;-72
2022/01/03 09:32:20;;;;;;;5.45;1.67;;;;;;;;;;4947738;29;20085;-66
2022/01/03 09:34:47;;;;;;;5.43;1.67;;;;;;;;;;4947655;28;20048;-70
2022/01/03 09:37:20;;;;;;;5.40;1.55;;;;;;;;;;4949265;28;20059;-73
2022/01/03 09:39:47;;;;;;;;;;;;;;;;;;4949749;28;20051;-70
2022/01/03 09:42:14;;;;;;;5.15;1.77;;;;;;;;;;4949558;28;19930;-71
2022/01/03 09:44:41;;;;;;;10.55;2.13;;;;;;;;;;4947246;28;20486;-71
2022/01/03 09:47:07;;;;;;;6.97;2.63;;;;;;;;;;4948338;29;20469;-72
2022/01/03 09:49:36;;;;;;;13.18;3.00;;;;;;;;;;4934754;29;20051;-70
2022/01/03 09:52:05;;;;;;;8.02;2.38;;;;;;;;;;4950269;28;20059;-70
2022/01/03 09:54:32;;;;;;;9.32;2.58;;;;;;;;;;4953352;28;20110;-70
2022/01/03 09:57:01;;;;;;;8.82;2.22;;;;;;;;;;4946557;28;20051;-71
2022/01/03 09:59:28;;;;;;;8.07;2.53;;;;;;;;;;4948798;29;20051;-72
2022/01/03 10:01:56;;;;;;;8.52;2.22;;;;;;;;;;4972121;23;20489;-73
2022/01/03 10:04:23;;;;;;;10.43;2.08;;;;;;;;;;4950284;28;20062;-71
2022/01/03 10:06:51;;;;;;;7.78;1.75;;;;;;;;;;4934572;29;20095;-73
2022/01/03 10:09:19;;;;;;;11.77;1.52;;;;;;;;;;4920311;29;20102;-72
2022/01/03 10:11:46;;;;;;;6.25;1.95;;;;;;;;;;4953105;28;20047;-74
2022/01/03 10:14:13;;;;;;;5.45;1.38;;;;;;;;;;4955913;29;20047;-69
2022/01/03 10:16:41;;;;;;;10.77;1.88;;;;;;;;;;4954515;28;20046;-70
2022/01/03 10:19:16;;;;;;;7.53;1.70;;;;;;;;;;4953104;29;20051;-69
2022/01/03 10:21:45;;;;;;;6.10;1.55;;;;;;;;;;4951592;28;20098;-69
2022/01/03 10:24:13;;;;;;;5.78;1.60;;;;;;;;;;4951882;29;20059;-70
2022/01/03 10:26:42;;;;;;;2.70;1.45;;;;;;;;;;4954208;28;20494;-76
2022/01/03 10:29:20;;;;;;;8.75;1.52;;;;;;;;;;4927250;29;20550;-74
2022/01/03 10:31:50;;;;;;;8.13;2.15;;;;;;;;;;4968445;28;20039;-77
2022/01/03 10:34:18;;;;;;;6.15;1.52;;;;;;;;;;4952941;28;20055;-73
2022/01/03 10:36:47;;;;;;;6.50;2.15;;;;;;;;;;4954388;28;20572;-75
2022/01/03 10:39:19;;;;;;;4.55;1.65;;;;;;;;;;4954217;28;20055;-70
2022/01/03 10:42:09;;;;;;;7.00;1.60;;;;;;;;;;4953951;28;20106;-76
2022/01/03 10:44:38;;;;;;;9.60;1.95;;;;;;;;;;4950305;29;20110;-71
2022/01/03 10:47:07;;;;;;;8.35;1.95;;;;;;;;;;4954202;29;20421;-74
2022/01/03 10:49:34;;;;;;;7.47;1.52;;;;;;;;;;4950094;29;20199;-73
2022/01/03 10:52:14;;;;;;;3.28;1.23;;;;;;;;;;4954780;28;20106;-74
2022/01/03 10:54:40;;;;;;;5.13;1.33;;;;;;;;;;4953219;28;20055;-72
2022/01/03 10:57:07;;;;;;;7.57;1.88;;;;;;;;;;4953851;28;20114;-73
2022/01/03 10:59:35;;;;;;;6.57;1.20;;;;;;;;;;4957851;28;20047;-72
2022/01/03 11:02:10;;;;;;;3.72;2.03;;;;;;;;;;4957949;28;20065;-72
2022/01/03 11:04:49;;;;;;;4.35;1.13;;;;;;;;;;4950698;29;20047;-72
2022/01/03 11:13:19;;;;;;;8.10;1.27;;;;;;;;;;4952563;28;20055;-69
2022/01/03 11:16:01;;;;;;;5.88;1.20;;;;;;;;;;4950231;29;20396;-71
2022/01/03 11:18:35;;;;;;;6.00;1.55;;;;;;;;;;4953302;29;20051;-70
2022/01/03 11:21:11;;;;;;;6.43;1.30;;;;;;;;;;4950443;29;20064;-70
2022/01/03 11:23:39;;;;;;;5.93;1.23;;;;;;;;;;4953131;28;20047;-70
2022/01/03 11:26:14;;;;;;;4.63;1.27;;;;;;;;;;4953691;29;20109;-73
2022/01/03 11:28:42;;;;;;;8.68;2.05;;;;;;;;;;4951420;28;20098;-70
2022/01/03 11:31:11;;;;;;;2.92;1.02;;;;;;;;;;4952219;29;20062;-70
2022/01/03 11:33:39;;;;;;;3.25;1.08;;;;;;;;;;4952515;29;20450;-73
2022/01/03 11:36:26;;;;;;;6.70;1.10;;;;;;;;;;4947128;29;20149;-69
2022/01/03 11:38:57;;;;;;;6.38;2.22;;;;;;;;;;4946029;28;20458;-70
2022/01/03 11:41:24;;;;;;;6.50;2.25;;;;;;;;;;4965110;28;20043;-69
2022/01/03 11:43:50;;;;;;;3.20;0.90;;;;;;;;;;4935513;29;20051;-74
2022/01/03 11:46:17;;;;;;;7.25;1.20;;;;;;;;;;4923478;29;20051;-71
2022/01/03 11:48:45;;;;;;;5.47;1.10;;;;;;;;;;4944071;29;20051;-73
2022/01/03 11:51:12;;;;;;;4.82;1.20;;;;;;;;;;4948975;28;20422;-72
2022/01/03 11:53:44;;;;;;;4.43;1.30;;;;;;;;;;4935456;29;20102;-75
2022/01/03 11:56:19;;;;;;;4.72;1.60;;;;;;;;;;4951493;28;20051;-76
2022/01/03 11:59:06;;;;;;;7.22;1.48;;;;;;;;;;4935861;29;20059;-75
2022/01/03 12:04:58;;;;;;;3.47;0.95;;;;;;;;;;4950898;29;20058;-72
2022/01/03 12:07:25;;;;;;;7.85;1.27;;;;;;;;;;4950901;29;20137;-71
2022/01/03 12:09:53;;;;;;;4.35;0.95;;;;;;;;;;4950961;29;20051;-71
2022/01/03 12:12:29;;;;;;;7.18;1.15;;;;;;;;;;4950643;29;20047;-70
2022/01/03 12:14:59;;;;;;;4.65;0.85;;;;;;;;;;4952045;28;20055;-69
2022/01/03 12:17:48;;;;;;;4.47;1.88;;;;;;;;;;4952798;28;20081;-69
2022/01/03 12:20:15;;;;;;;6.35;2.10;;;;;;;;;;4951335;29;20051;-70
2022/01/03 12:22:49;;;;;;;2.05;0.90;;;;;;;;;;4951853;28;20506;-70
2022/01/03 12:25:31;;;;;;;2.40;0.82;;;;;;;;;;4949473;29;20055;-68
2022/01/03 12:28:03;;;;;;;2.83;0.80;;;;;;;;;;4950660;29;20494;-70
2022/01/03 12:30:38;;;;;;;4.53;0.80;;;;;;;;;;4952384;28;20098;-72
2022/01/03 12:33:08;;;;;;;3.90;0.70;;;;;;;;;;4947906;29;20138;-71
2022/01/03 12:35:36;;;;;;;4.03;0.60;;;;;;;;;;4949067;29;20051;-69
2022/01/03 12:38:03;;;;;;;1.13;0.52;;;;;;;;;;4951246;28;20051;-69
2022/01/03 12:40:35;;;;;;;0.80;0.50;;;;;;;;;;4952897;28;20047;-69
2022/01/03 12:43:12;;;;;;;4.70;1.05;;;;;;;;;;4952973;28;20106;-71
2022/01/03 12:45:39;;;;;;;4.25;0.60;;;;;;;;;;4949652;29;20055;-72
2022/01/03 12:48:09;;;;;;;4.32;1.85;;;;;;;;;;4951883;29;20498;-72
2022/01/03 12:50:40;;;;;;;1.63;0.60;;;;;;;;;;4942652;28;20518;-72
2022/01/03 12:53:09;;;;;;;1.73;0.60;;;;;;;;;;4949281;29;20466;-71
2022/01/03 12:55:42;;;;;;;3.28;0.95;;;;;;;;;;4942134;29;20051;-69
2022/01/03 12:58:16;;;;;;;3.85;1.38;;;;;;;;;;4951781;29;20572;-73
2022/01/03 13:00:50;;;;;;;5.40;1.45;;;;;;;;;;4955067;29;20339;-71
2022/01/03 13:03:27;;;;;;;13.38;4.05;;;;;;;;;;4951406;28;20058;-71
2022/01/03 13:06:15;;;;;;;17.95;7.97;;;;;;;;;;4947857;28;20047;-70
2022/01/03 13:08:43;;;;;;;30.35;12.00;;;;;;;;;;4946648;29;20082;-71
2022/01/03 13:11:12;;;;;;;11.32;5.85;;;;;;;;;;4945813;29;20055;-73
2022/01/03 13:13:41;;;;;;;23.27;10.10;;;;;;;;;;4947354;29;20043;-69
2022/01/03 13:16:24;;;;;;;28.38;9.65;;;;;;;;;;4946316;29;20058;-72
2022/01/03 13:18:55;;;;;;;5.90;2.72;;;;;;;;;;4946681;28;20441;-71
2022/01/03 13:21:24;;;;;;;2.97;1.48;;;;;;;;;;4950868;28;20055;-73
2022/01/03 13:23:52;;;;;;;4.50;1.48;;;;;;;;;;4938487;29;20047;-71
2022/01/03 13:26:20;;;;;;;5.20;1.38;;;;;;;;;;4938407;29;20055;-71
2022/01/03 13:28:51;;;;;;;7.60;1.40;;;;;;;;;;4955716;29;20047;-70
2022/01/03 13:31:18;;;;;;;5.55;1.33;;;;;;;;;;4955001;28;20567;-73
2022/01/03 13:33:55;;;;;;;4.35;1.30;;;;;;;;;;4953810;28;20121;-72
2022/01/03 13:36:41;;;;;;;6.47;1.48;;;;;;;;;;4935006;29;20130;-72
2022/01/03 13:39:14;;;;;;;6.40;1.73;;;;;;;;;;4948638;29;20087;-70
2022/01/03 13:41:42;;;;;;;4.32;1.40;;;;;;;;;;4948912;29;20130;-69
2022/01/03 13:44:14;;;;;;;4.35;1.40;;;;;;;;;;4954818;29;20097;-68
2022/01/03 13:49:31;;;;;;;5.95;1.10;;;;;;;;;;4950173;29;20078;-69
2022/01/03 13:51:58;;;;;;;3.80;0.75;;;;;;;;;;4956007;28;20129;-70
2022/01/03 13:54:30;;;;;;;6.72;1.85;;;;;;;;;;4948534;29;20051;-69
2022/01/03 13:56:58;;;;;;;11.52;2.83;;;;;;;;;;4949892;29;20043;-69
2022/01/03 13:59:26;;;;;;;6.22;2.40;;;;;;;;;;4954616;28;20502;-69
2022/01/03 14:02:01;;;;;;;4.00;1.60;;;;;;;;;;4953185;28;20470;-69
2022/01/03 14:04:32;;;;;;;4.45;1.08;;;;;;;;;;4953547;29;20055;-70
2022/01/03 14:07:10;;;;;;;4.65;1.40;;;;;;;;;;4953063;29;20047;-70
2022/01/03 14:09:55;;;;;;;6.78;1.63;;;;;;;;;;4949156;28;20094;-70
2022/01/03 14:12:22;;;;;;;3.17;1.40;;;;;;;;;;4952454;29;20047;-70
2022/01/03 14:14:52;;;;;;;5.75;2.10;;;;;;;;;;4953912;28;20138;-69
2022/01/03 14:17:21;;;;;;;4.13;1.67;;;;;;;;;;4954490;29;20059;-69
2022/01/03 14:19:59;;;;;;;6.55;1.48;;;;;;;;;;4954184;28;20047;-70
2022/01/03 14:22:32;;;;;;;8.18;1.48;;;;;;;;;;4949537;29;20051;-70
2022/01/03 14:25:03;;;;;;;5.18;1.30;;;;;;;;;;4952749;29;20051;-70
2022/01/03 14:27:37;;;;;;;5.90;1.63;;;;;;;;;;4948033;29;20055;-72
2022/01/03 14:30:34;;;;;;;4.55;1.52;;;;;;;;;;4949659;29;20585;-72
2022/01/03 14:33:05;;;;;;;3.95;0.98;;;;;;;;;;4959891;28;20509;-69
2022/01/03 14:35:46;;;;;;;3.17;1.00;;;;;;;;;;4948364;29;20047;-70
2022/01/03 14:38:15;;;;;;;3.25;1.95;;;;;;;;;;4954348;28;20054;-68
2022/01/03 14:40:43;;;;;;;3.40;1.42;;;;;;;;;;4950818;29;20470;-71
2022/01/03 14:43:13;;;;;;;4.85;1.75;;;;;;;;;;4945870;28;20242;-69
2022/01/03 14:45:40;;;;;;;7.50;1.30;;;;;;;;;;4950966;29;20126;-74
2022/01/03 14:48:07;;;;;;;1.92;0.95;;;;;;;;;;4954142;28;20084;-71
2022/01/03 14:50:35;;;;;;;4.80;0.90;;;;;;;;;;4953933;28;20051;-72
2022/01/03 14:53:04;;;;;;;4.65;1.00;;;;;;;;;;4946157;28;20059;-69
2022/01/03 14:55:35;;;;;;;4.70;1.40;;;;;;;;;;4936989;29;20062;-72
2022/01/03 14:58:04;;;;;;;3.83;1.45;;;;;;;;;;4952298;29;20121;-73
2022/01/03 15:00:32;;;;;;;6.90;1.50;;;;;;;;;;4952489;29;20506;-73
2022/01/03 15:03:00;;;;;;;5.50;2.13;;;;;;;;;;4953614;28;20111;-70
2022/01/03 15:05:32;;;;;;;5.57;0.90;;;;;;;;;;4951469;29;20053;-73
2022/01/03 15:07:58;;;;;;;3.75;1.02;;;;;;;;;;4945211;28;20507;-71
2022/01/03 15:10:28;;;;;;;4.15;1.23;;;;;;;;;;4950454;29;20485;-72
2022/01/03 15:13:14;;;;;;;3.95;1.00;;;;;;;;;;4952699;29;20138;-74
2022/01/03 15:15:43;;;;;;;7.65;0.90;;;;;;;;;;4950480;29;20110;-73
2022/01/03 15:18:09;;;;;;;3.17;1.25;;;;;;;;;;4949955;29;20079;-73
2022/01/03 15:20:36;;;;;;;3.83;0.98;;;;;;;;;;4951012;28;20063;-73